sensor_id;sensor_type;location;lat;lon;timestamp;P1;durP1;ratioP1;P2;durP2;ratioP2
49978;SDS011;35869;50.990;6.962;2024-03-25T00:00:25;11.73;;;5.22;;
49978;SDS011;35869;50.990;6.962;2024-03-25T00:05:26;17.02;;;5.65;;
49978;SDS011;35869;50.990;6.962;2024-03-25T00:10:26;16.20;;;4.80;;
49978;SDS011;35869;50.990;6.962;2024-03-25T00:15:26;17.63;;;5.30;;
49978;SDS011;35869;50.990;6.962;2024-03-25T00:20:26;9.40;;;5.28;;
49978;SDS011;35869;50.990;6.962;2024-03-25T00:25:27;14.73;;;6.57;;
49978;SDS011;35869;50.990;6.962;2024-03-25T00:30:27;16.20;;;6.57;;
49978;SDS011;35869;50.990;6.962;2024-03-25T00:35:27;13.98;;;6.82;;
49978;SDS011;35869;50.990;6.962;2024-03-25T00:40:27;12.95;;;7.00;;
49978;SDS011;35869;50.990;6.962;2024-03-25T00:45:28;11.77;;;6.82;;
49978;SDS011;35869;50.990;6.962;2024-03-25T00:50:28;14.73;;;7.40;;
49978;SDS011;35869;50.990;6.962;2024-03-25T00:55:28;14.18;;;7.05;;
49978;SDS011;35869;50.990;6.962;2024-03-25T01:00:28;14.00;;;6.97;;
49978;SDS011;35869;50.990;6.962;2024-03-25T01:05:29;14.05;;;6.25;;
49978;SDS011;35869;50.990;6.962;2024-03-25T01:10:29;14.20;;;5.90;;
49978;SDS011;35869;50.990;6.962;2024-03-25T01:15:29;11.25;;;5.95;;
49978;SDS011;35869;50.990;6.962;2024-03-25T01:20:29;14.52;;;5.95;;
49978;SDS011;35869;50.990;6.962;2024-03-25T01:25:29;19.45;;;7.07;;
49978;SDS011;35869;50.990;6.962;2024-03-25T01:30:30;11.07;;;5.90;;
49978;SDS011;35869;50.990;6.962;2024-03-25T01:35:30;15.63;;;6.17;;
49978;SDS011;35869;50.990;6.962;2024-03-25T01:40:31;14.73;;;6.63;;
49978;SDS011;35869;50.990;6.962;2024-03-25T01:45:32;13.75;;;6.22;;
49978;SDS011;35869;50.990;6.962;2024-03-25T01:50:34;14.32;;;6.03;;
49978;SDS011;35869;50.990;6.962;2024-03-25T01:55:37;13.68;;;6.38;;
49978;SDS011;35869;50.990;6.962;2024-03-25T02:00:39;16.63;;;6.70;;
49978;SDS011;35869;50.990;6.962;2024-03-25T02:05:39;18.90;;;6.43;;
49978;SDS011;35869;50.990;6.962;2024-03-25T02:10:40;10.25;;;5.75;;
49978;SDS011;35869;50.990;6.962;2024-03-25T02:20:41;15.50;;;5.97;;
49978;SDS011;35869;50.990;6.962;2024-03-25T02:25:42;17.38;;;6.13;;
49978;SDS011;35869;50.990;6.962;2024-03-25T02:30:43;18.60;;;6.25;;
49978;SDS011;35869;50.990;6.962;2024-03-25T02:35:43;15.60;;;6.33;;
49978;SDS011;35869;50.990;6.962;2024-03-25T02:40:44;15.93;;;6.00;;
49978;SDS011;35869;50.990;6.962;2024-03-25T02:45:45;21.97;;;6.83;;
49978;SDS011;35869;50.990;6.962;2024-03-25T02:50:45;16.25;;;5.85;;
49978;SDS011;35869;50.990;6.962;2024-03-25T02:55:45;14.70;;;6.50;;
49978;SDS011;35869;50.990;6.962;2024-03-25T03:00:46;14.02;;;5.85;;
49978;SDS011;35869;50.990;6.962;2024-03-25T03:05:46;12.98;;;5.60;;
49978;SDS011;35869;50.990;6.962;2024-03-25T03:10:46;12.50;;;5.45;;
49978;SDS011;35869;50.990;6.962;2024-03-25T03:15:46;16.53;;;6.53;;
49978;SDS011;35869;50.990;6.962;2024-03-25T03:20:46;16.30;;;6.18;;
49978;SDS011;35869;50.990;6.962;2024-03-25T03:25:47;14.00;;;6.28;;
49978;SDS011;35869;50.990;6.962;2024-03-25T03:30:47;15.80;;;6.18;;
49978;SDS011;35869;50.990;6.962;2024-03-25T03:35:48;15.90;;;6.10;;
49978;SDS011;35869;50.990;6.962;2024-03-25T03:40:58;16.70;;;5.88;;
49978;SDS011;35869;50.990;6.962;2024-03-25T03:45:59;19.60;;;6.37;;
49978;SDS011;35869;50.990;6.962;2024-03-25T03:51:00;20.42;;;6.30;;
49978;SDS011;35869;50.990;6.962;2024-03-25T03:56:01;21.20;;;6.03;;
49978;SDS011;35869;50.990;6.962;2024-03-25T04:01:04;15.00;;;5.82;;
49978;SDS011;35869;50.990;6.962;2024-03-25T04:06:14;11.13;;;6.30;;
49978;SDS011;35869;50.990;6.962;2024-03-25T04:11:14;20.67;;;6.80;;
49978;SDS011;35869;50.990;6.962;2024-03-25T04:16:15;17.17;;;6.50;;
49978;SDS011;35869;50.990;6.962;2024-03-25T04:21:15;18.85;;;7.40;;
49978;SDS011;35869;50.990;6.962;2024-03-25T04:26:15;12.50;;;6.18;;
49978;SDS011;35869;50.990;6.962;2024-03-25T04:31:15;19.17;;;7.47;;
49978;SDS011;35869;50.990;6.962;2024-03-25T04:36:16;14.15;;;6.53;;
49978;SDS011;35869;50.990;6.962;2024-03-25T04:41:16;15.07;;;5.97;;
49978;SDS011;35869;50.990;6.962;2024-03-25T04:46:16;15.82;;;6.53;;
49978;SDS011;35869;50.990;6.962;2024-03-25T04:51:16;11.70;;;5.90;;
49978;SDS011;35869;50.990;6.962;2024-03-25T04:56:16;17.20;;;7.03;;
49978;SDS011;35869;50.990;6.962;2024-03-25T05:01:17;13.25;;;6.85;;
49978;SDS011;35869;50.990;6.962;2024-03-25T05:06:17;14.38;;;6.55;;
49978;SDS011;35869;50.990;6.962;2024-03-25T05:11:17;15.88;;;7.50;;
49978;SDS011;35869;50.990;6.962;2024-03-25T05:16:17;16.60;;;6.82;;
49978;SDS011;35869;50.990;6.962;2024-03-25T05:21:17;23.23;;;7.53;;
49978;SDS011;35869;50.990;6.962;2024-03-25T05:26:18;22.33;;;6.95;;
49978;SDS011;35869;50.990;6.962;2024-03-25T05:31:18;21.83;;;7.22;;
49978;SDS011;35869;50.990;6.962;2024-03-25T05:36:18;12.30;;;6.93;;
49978;SDS011;35869;50.990;6.962;2024-03-25T05:41:18;15.90;;;7.45;;
49978;SDS011;35869;50.990;6.962;2024-03-25T05:46:18;14.43;;;7.45;;
49978;SDS011;35869;50.990;6.962;2024-03-25T05:51:19;11.15;;;5.00;;
49978;SDS011;35869;50.990;6.962;2024-03-25T05:56:19;20.95;;;7.78;;
49978;SDS011;35869;50.990;6.962;2024-03-25T06:01:19;21.30;;;8.13;;
49978;SDS011;35869;50.990;6.962;2024-03-25T06:06:19;19.05;;;7.72;;
49978;SDS011;35869;50.990;6.962;2024-03-25T06:11:20;16.10;;;6.53;;
49978;SDS011;35869;50.990;6.962;2024-03-25T06:16:20;15.45;;;7.78;;
49978;SDS011;35869;50.990;6.962;2024-03-25T06:21:20;19.60;;;10.23;;
49978;SDS011;35869;50.990;6.962;2024-03-25T06:26:20;19.27;;;7.55;;
49978;SDS011;35869;50.990;6.962;2024-03-25T06:31:21;20.00;;;9.77;;
49978;SDS011;35869;50.990;6.962;2024-03-25T06:36:21;18.13;;;9.73;;
49978;SDS011;35869;50.990;6.962;2024-03-25T06:41:22;21.33;;;10.10;;
49978;SDS011;35869;50.990;6.962;2024-03-25T06:46:22;22.00;;;10.52;;
49978;SDS011;35869;50.990;6.962;2024-03-25T06:51:22;17.23;;;9.65;;
49978;SDS011;35869;50.990;6.962;2024-03-25T06:56:22;18.63;;;7.32;;
49978;SDS011;35869;50.990;6.962;2024-03-25T07:01:22;19.83;;;10.02;;
49978;SDS011;35869;50.990;6.962;2024-03-25T07:06:23;22.80;;;8.73;;
49978;SDS011;35869;50.990;6.962;2024-03-25T07:11:23;21.17;;;7.78;;
49978;SDS011;35869;50.990;6.962;2024-03-25T07:16:23;18.40;;;9.27;;
49978;SDS011;35869;50.990;6.962;2024-03-25T07:21:23;18.25;;;8.98;;
49978;SDS011;35869;50.990;6.962;2024-03-25T07:26:23;16.23;;;8.57;;
49978;SDS011;35869;50.990;6.962;2024-03-25T07:31:24;16.52;;;6.65;;
49978;SDS011;35869;50.990;6.962;2024-03-25T07:36:25;20.90;;;8.50;;
49978;SDS011;35869;50.990;6.962;2024-03-25T07:41:26;17.42;;;8.50;;
49978;SDS011;35869;50.990;6.962;2024-03-25T07:51:26;19.35;;;7.65;;
49978;SDS011;35869;50.990;6.962;2024-03-25T07:56:27;19.35;;;7.70;;
49978;SDS011;35869;50.990;6.962;2024-03-25T08:01:27;16.98;;;7.15;;
49978;SDS011;35869;50.990;6.962;2024-03-25T08:06:27;16.70;;;7.00;;
49978;SDS011;35869;50.990;6.962;2024-03-25T08:11:27;15.48;;;7.15;;
49978;SDS011;35869;50.990;6.962;2024-03-25T08:16:27;18.98;;;6.85;;
49978;SDS011;35869;50.990;6.962;2024-03-25T08:21:28;11.98;;;6.38;;
49978;SDS011;35869;50.990;6.962;2024-03-25T08:26:28;18.13;;;6.13;;
49978;SDS011;35869;50.990;6.962;2024-03-25T08:31:28;15.85;;;6.13;;
49978;SDS011;35869;50.990;6.962;2024-03-25T08:36:28;12.23;;;6.45;;
49978;SDS011;35869;50.990;6.962;2024-03-25T08:41:28;13.30;;;5.40;;
49978;SDS011;35869;50.990;6.962;2024-03-25T08:46:29;13.25;;;5.38;;
49978;SDS011;35869;50.990;6.962;2024-03-25T08:51:29;10.05;;;4.25;;
49978;SDS011;35869;50.990;6.962;2024-03-25T08:56:29;9.73;;;4.30;;
49978;SDS011;35869;50.990;6.962;2024-03-25T09:01:29;8.25;;;3.58;;
49978;SDS011;35869;50.990;6.962;2024-03-25T09:06:30;16.17;;;5.03;;
49978;SDS011;35869;50.990;6.962;2024-03-25T09:11:30;19.35;;;5.28;;
49978;SDS011;35869;50.990;6.962;2024-03-25T09:16:30;12.10;;;3.67;;
49978;SDS011;35869;50.990;6.962;2024-03-25T09:21:30;8.75;;;3.58;;
49978;SDS011;35869;50.990;6.962;2024-03-25T09:26:30;11.93;;;4.15;;
49978;SDS011;35869;50.990;6.962;2024-03-25T09:31:31;11.15;;;3.58;;
49978;SDS011;35869;50.990;6.962;2024-03-25T09:36:31;8.65;;;3.42;;
49978;SDS011;35869;50.990;6.962;2024-03-25T09:41:31;8.02;;;3.47;;
49978;SDS011;35869;50.990;6.962;2024-03-25T09:46:38;7.15;;;3.92;;
49978;SDS011;35869;50.990;6.962;2024-03-25T09:51:39;11.82;;;4.95;;
49978;SDS011;35869;50.990;6.962;2024-03-25T09:56:39;6.90;;;3.78;;
49978;SDS011;35869;50.990;6.962;2024-03-25T10:06:40;10.63;;;3.65;;
49978;SDS011;35869;50.990;6.962;2024-03-25T10:11:40;9.10;;;3.25;;
49978;SDS011;35869;50.990;6.962;2024-03-25T10:16:41;10.25;;;3.83;;
49978;SDS011;35869;50.990;6.962;2024-03-25T10:21:48;8.57;;;3.72;;
49978;SDS011;35869;50.990;6.962;2024-03-25T10:26:50;8.25;;;3.45;;
49978;SDS011;35869;50.990;6.962;2024-03-25T10:31:58;7.10;;;3.60;;
49978;SDS011;35869;50.990;6.962;2024-03-25T10:37:01;13.75;;;3.30;;
49978;SDS011;35869;50.990;6.962;2024-03-25T10:42:03;6.40;;;3.30;;
49978;SDS011;35869;50.990;6.962;2024-03-25T10:47:05;8.75;;;3.50;;
49978;SDS011;35869;50.990;6.962;2024-03-25T10:52:08;6.55;;;3.00;;
49978;SDS011;35869;50.990;6.962;2024-03-25T10:57:11;9.70;;;3.08;;
49978;SDS011;35869;50.990;6.962;2024-03-25T11:02:12;7.80;;;2.88;;
49978;SDS011;35869;50.990;6.962;2024-03-25T11:07:14;8.13;;;3.47;;
49978;SDS011;35869;50.990;6.962;2024-03-25T11:17:15;7.18;;;3.10;;
49978;SDS011;35869;50.990;6.962;2024-03-25T11:27:20;4.38;;;1.85;;
49978;SDS011;35869;50.990;6.962;2024-03-25T11:32:21;7.07;;;2.80;;
49978;SDS011;35869;50.990;6.962;2024-03-25T11:37:22;7.47;;;2.57;;
49978;SDS011;35869;50.990;6.962;2024-03-25T11:42:22;4.70;;;2.47;;
49978;SDS011;35869;50.990;6.962;2024-03-25T11:47:22;6.95;;;2.92;;
49978;SDS011;35869;50.990;6.962;2024-03-25T11:57:23;6.50;;;2.97;;
49978;SDS011;35869;50.990;6.962;2024-03-25T12:07:24;7.90;;;2.58;;
49978;SDS011;35869;50.990;6.962;2024-03-25T12:12:25;9.05;;;2.67;;
49978;SDS011;35869;50.990;6.962;2024-03-25T12:22:26;5.53;;;2.60;;
49978;SDS011;35869;50.990;6.962;2024-03-25T12:32:39;5.72;;;2.28;;
49978;SDS011;35869;50.990;6.962;2024-03-25T12:37:41;3.38;;;2.00;;
49978;SDS011;35869;50.990;6.962;2024-03-25T12:42:48;4.00;;;2.08;;
49978;SDS011;35869;50.990;6.962;2024-03-25T12:47:52;6.57;;;3.15;;
49978;SDS011;35869;50.990;6.962;2024-03-25T12:57:52;7.72;;;2.38;;
49978;SDS011;35869;50.990;6.962;2024-03-25T13:02:53;7.53;;;2.40;;
49978;SDS011;35869;50.990;6.962;2024-03-25T13:07:53;4.15;;;1.90;;
49978;SDS011;35869;50.990;6.962;2024-03-25T13:17:54;3.70;;;1.83;;
49978;SDS011;35869;50.990;6.962;2024-03-25T13:22:54;6.03;;;2.22;;
49978;SDS011;35869;50.990;6.962;2024-03-25T13:32:55;2.75;;;1.92;;
49978;SDS011;35869;50.990;6.962;2024-03-25T13:37:55;6.75;;;2.17;;
49978;SDS011;35869;50.990;6.962;2024-03-25T13:42:55;3.85;;;1.95;;
49978;SDS011;35869;50.990;6.962;2024-03-25T13:47:56;4.88;;;1.65;;
49978;SDS011;35869;50.990;6.962;2024-03-25T13:52:56;3.33;;;1.70;;
49978;SDS011;35869;50.990;6.962;2024-03-25T13:57:56;4.00;;;1.80;;
49978;SDS011;35869;50.990;6.962;2024-03-25T14:02:56;1.73;;;1.60;;
49978;SDS011;35869;50.990;6.962;2024-03-25T14:07:57;4.57;;;1.73;;
49978;SDS011;35869;50.990;6.962;2024-03-25T14:12:57;6.53;;;1.92;;
49978;SDS011;35869;50.990;6.962;2024-03-25T14:17:57;3.87;;;1.83;;
49978;SDS011;35869;50.990;6.962;2024-03-25T14:22:57;3.03;;;1.53;;
49978;SDS011;35869;50.990;6.962;2024-03-25T14:27:58;3.23;;;1.40;;
49978;SDS011;35869;50.990;6.962;2024-03-25T14:32:58;3.30;;;1.83;;
49978;SDS011;35869;50.990;6.962;2024-03-25T14:37:58;5.37;;;1.70;;
49978;SDS011;35869;50.990;6.962;2024-03-25T14:42:58;7.03;;;1.60;;
49978;SDS011;35869;50.990;6.962;2024-03-25T14:47:59;2.95;;;1.20;;
49978;SDS011;35869;50.990;6.962;2024-03-25T14:52:59;3.50;;;1.52;;
49978;SDS011;35869;50.990;6.962;2024-03-25T14:57:59;3.65;;;1.50;;
49978;SDS011;35869;50.990;6.962;2024-03-25T15:02:59;2.40;;;1.40;;
49978;SDS011;35869;50.990;6.962;2024-03-25T15:07:59;4.10;;;1.27;;
49978;SDS011;35869;50.990;6.962;2024-03-25T15:13:00;2.33;;;1.20;;
49978;SDS011;35869;50.990;6.962;2024-03-25T15:18:00;2.97;;;1.30;;
49978;SDS011;35869;50.990;6.962;2024-03-25T15:23:00;2.33;;;1.48;;
49978;SDS011;35869;50.990;6.962;2024-03-25T15:28:01;3.03;;;1.30;;
49978;SDS011;35869;50.990;6.962;2024-03-25T15:33:02;3.05;;;1.38;;
49978;SDS011;35869;50.990;6.962;2024-03-25T15:43:02;3.08;;;1.17;;
49978;SDS011;35869;50.990;6.962;2024-03-25T15:53:12;3.45;;;1.30;;
49978;SDS011;35869;50.990;6.962;2024-03-25T15:58:12;3.55;;;1.23;;
49978;SDS011;35869;50.990;6.962;2024-03-25T16:08:13;3.10;;;1.38;;
49978;SDS011;35869;50.990;6.962;2024-03-25T16:13:13;1.70;;;1.07;;
49978;SDS011;35869;50.990;6.962;2024-03-25T16:18:13;1.48;;;0.80;;
49978;SDS011;35869;50.990;6.962;2024-03-25T16:23:14;4.45;;;1.25;;
49978;SDS011;35869;50.990;6.962;2024-03-25T16:28:14;6.47;;;2.33;;
49978;SDS011;35869;50.990;6.962;2024-03-25T16:33:14;2.97;;;1.55;;
49978;SDS011;35869;50.990;6.962;2024-03-25T16:38:14;3.60;;;1.55;;
49978;SDS011;35869;50.990;6.962;2024-03-25T16:43:15;2.40;;;1.15;;
49978;SDS011;35869;50.990;6.962;2024-03-25T16:48:29;2.92;;;1.90;;
49978;SDS011;35869;50.990;6.962;2024-03-25T16:53:29;1.70;;;1.17;;
49978;SDS011;35869;50.990;6.962;2024-03-25T16:58:29;3.63;;;1.35;;
49978;SDS011;35869;50.990;6.962;2024-03-25T17:03:30;3.13;;;1.38;;
49978;SDS011;35869;50.990;6.962;2024-03-25T17:08:31;2.70;;;1.20;;
49978;SDS011;35869;50.990;6.962;2024-03-25T17:13:33;2.40;;;1.38;;
49978;SDS011;35869;50.990;6.962;2024-03-25T17:18:35;4.70;;;1.23;;
49978;SDS011;35869;50.990;6.962;2024-03-25T17:23:37;2.63;;;1.30;;
49978;SDS011;35869;50.990;6.962;2024-03-25T17:33:44;3.67;;;1.55;;
49978;SDS011;35869;50.990;6.962;2024-03-25T17:38:47;3.83;;;1.43;;
49978;SDS011;35869;50.990;6.962;2024-03-25T17:43:54;2.20;;;1.48;;
49978;SDS011;35869;50.990;6.962;2024-03-25T17:54:16;5.03;;;1.88;;
49978;SDS011;35869;50.990;6.962;2024-03-25T17:59:25;5.85;;;1.70;;
49978;SDS011;35869;50.990;6.962;2024-03-25T18:04:25;3.78;;;1.55;;
49978;SDS011;35869;50.990;6.962;2024-03-25T18:09:25;2.92;;;1.63;;
49978;SDS011;35869;50.990;6.962;2024-03-25T18:14:27;4.60;;;1.58;;
49978;SDS011;35869;50.990;6.962;2024-03-25T18:19:27;4.55;;;1.55;;
49978;SDS011;35869;50.990;6.962;2024-03-25T18:24:27;3.67;;;1.58;;
49978;SDS011;35869;50.990;6.962;2024-03-25T18:29:27;2.40;;;1.48;;
49978;SDS011;35869;50.990;6.962;2024-03-25T18:34:28;3.38;;;1.50;;
49978;SDS011;35869;50.990;6.962;2024-03-25T18:39:28;4.43;;;1.67;;
49978;SDS011;35869;50.990;6.962;2024-03-25T18:44:28;6.22;;;2.08;;
49978;SDS011;35869;50.990;6.962;2024-03-25T18:49:28;4.13;;;1.70;;
49978;SDS011;35869;50.990;6.962;2024-03-25T18:54:29;4.37;;;1.70;;
49978;SDS011;35869;50.990;6.962;2024-03-25T18:59:29;3.30;;;1.83;;
49978;SDS011;35869;50.990;6.962;2024-03-25T19:04:29;2.50;;;1.60;;
49978;SDS011;35869;50.990;6.962;2024-03-25T19:09:29;2.47;;;1.87;;
49978;SDS011;35869;50.990;6.962;2024-03-25T19:14:30;4.60;;;1.80;;
49978;SDS011;35869;50.990;6.962;2024-03-25T19:19:30;5.50;;;1.63;;
49978;SDS011;35869;50.990;6.962;2024-03-25T19:24:30;4.57;;;2.00;;
49978;SDS011;35869;50.990;6.962;2024-03-25T19:29:30;3.20;;;1.75;;
49978;SDS011;35869;50.990;6.962;2024-03-25T19:34:31;4.27;;;1.80;;
49978;SDS011;35869;50.990;6.962;2024-03-25T19:39:31;2.63;;;1.33;;
49978;SDS011;35869;50.990;6.962;2024-03-25T19:44:31;3.50;;;1.50;;
49978;SDS011;35869;50.990;6.962;2024-03-25T19:49:33;2.35;;;1.13;;
49978;SDS011;35869;50.990;6.962;2024-03-25T19:54:33;3.67;;;1.58;;
49978;SDS011;35869;50.990;6.962;2024-03-25T19:59:36;5.45;;;2.15;;
49978;SDS011;35869;50.990;6.962;2024-03-25T20:04:38;3.35;;;1.40;;
49978;SDS011;35869;50.990;6.962;2024-03-25T20:09:38;7.85;;;1.92;;
49978;SDS011;35869;50.990;6.962;2024-03-25T20:14:38;4.72;;;1.70;;
49978;SDS011;35869;50.990;6.962;2024-03-25T20:19:39;4.13;;;1.45;;
49978;SDS011;35869;50.990;6.962;2024-03-25T20:24:39;6.32;;;1.90;;
49978;SDS011;35869;50.990;6.962;2024-03-25T20:29:39;3.60;;;1.83;;
49978;SDS011;35869;50.990;6.962;2024-03-25T20:34:39;6.03;;;2.30;;
49978;SDS011;35869;50.990;6.962;2024-03-25T20:39:39;8.40;;;3.05;;
49978;SDS011;35869;50.990;6.962;2024-03-25T20:44:40;3.70;;;2.00;;
49978;SDS011;35869;50.990;6.962;2024-03-25T20:49:40;5.30;;;2.63;;
49978;SDS011;35869;50.990;6.962;2024-03-25T20:54:40;4.80;;;1.77;;
49978;SDS011;35869;50.990;6.962;2024-03-25T20:59:40;5.88;;;1.90;;
49978;SDS011;35869;50.990;6.962;2024-03-25T21:04:41;4.40;;;1.75;;
49978;SDS011;35869;50.990;6.962;2024-03-25T21:09:41;3.88;;;1.90;;
49978;SDS011;35869;50.990;6.962;2024-03-25T21:14:41;5.93;;;2.00;;
49978;SDS011;35869;50.990;6.962;2024-03-25T21:19:42;4.57;;;1.90;;
49978;SDS011;35869;50.990;6.962;2024-03-25T21:24:42;4.13;;;2.20;;
49978;SDS011;35869;50.990;6.962;2024-03-25T21:29:42;5.72;;;2.05;;
49978;SDS011;35869;50.990;6.962;2024-03-25T21:34:42;3.38;;;2.20;;
49978;SDS011;35869;50.990;6.962;2024-03-25T21:39:43;6.55;;;2.08;;
49978;SDS011;35869;50.990;6.962;2024-03-25T21:44:43;5.57;;;2.00;;
49978;SDS011;35869;50.990;6.962;2024-03-25T21:49:43;4.07;;;1.95;;
49978;SDS011;35869;50.990;6.962;2024-03-25T21:54:43;5.17;;;2.07;;
49978;SDS011;35869;50.990;6.962;2024-03-25T21:59:44;5.07;;;2.08;;
49978;SDS011;35869;50.990;6.962;2024-03-25T22:04:47;3.42;;;1.88;;
49978;SDS011;35869;50.990;6.962;2024-03-25T22:09:47;4.85;;;2.05;;
49978;SDS011;35869;50.990;6.962;2024-03-25T22:14:47;4.30;;;2.17;;
49978;SDS011;35869;50.990;6.962;2024-03-25T22:19:49;4.00;;;2.20;;
49978;SDS011;35869;50.990;6.962;2024-03-25T22:24:52;4.50;;;2.10;;
49978;SDS011;35869;50.990;6.962;2024-03-25T22:29:53;7.00;;;2.20;;
49978;SDS011;35869;50.990;6.962;2024-03-25T22:34:53;4.93;;;2.17;;
49978;SDS011;35869;50.990;6.962;2024-03-25T22:39:53;4.88;;;2.40;;
49978;SDS011;35869;50.990;6.962;2024-03-25T22:44:54;4.10;;;2.40;;
49978;SDS011;35869;50.990;6.962;2024-03-25T22:49:54;3.15;;;2.38;;
49978;SDS011;35869;50.990;6.962;2024-03-25T22:54:54;7.13;;;2.60;;
49978;SDS011;35869;50.990;6.962;2024-03-25T22:59:54;6.35;;;2.33;;
49978;SDS011;35869;50.990;6.962;2024-03-25T23:04:55;3.97;;;2.42;;
49978;SDS011;35869;50.990;6.962;2024-03-25T23:09:55;7.90;;;2.42;;
49978;SDS011;35869;50.990;6.962;2024-03-25T23:14:55;5.53;;;2.30;;
49978;SDS011;35869;50.990;6.962;2024-03-25T23:19:55;4.45;;;2.17;;
49978;SDS011;35869;50.990;6.962;2024-03-25T23:24:56;4.18;;;2.38;;
49978;SDS011;35869;50.990;6.962;2024-03-25T23:29:56;5.22;;;2.53;;
49978;SDS011;35869;50.990;6.962;2024-03-25T23:34:57;5.47;;;2.42;;
49978;SDS011;35869;50.990;6.962;2024-03-25T23:39:57;5.00;;;2.30;;
49978;SDS011;35869;50.990;6.962;2024-03-25T23:44:57;3.83;;;2.35;;
49978;SDS011;35869;50.990;6.962;2024-03-25T23:49:57;4.95;;;2.45;;
49978;SDS011;35869;50.990;6.962;2024-03-25T23:54:59;3.20;;;2.17;;
